Time;durP1;ratioP1;P1;durP2;ratioP2;P2;SDS_P1;SDS_P2;PMS_P1;PMS_P2;Temp;Humidity;BMP_temperature;BMP_pressure;BME280_temperature;BME280_humidity;BME280_pressure;Samples;Min_cycle;Max_cycle;Signal;HPM_P1;HPM_P2
2023/07/27 00:01:52;;;;;;;6.97;2.00;;;13.90;99.90;;;;;;4956897;28;20050;-75
2023/07/27 00:04:18;;;;;;;2.85;1.70;;;13.90;99.90;;;;;;4956801;28;20110;-73
2023/07/27 00:06:46;;;;;;;3.83;2.08;;;13.80;99.90;;;;;;4955225;28;20502;-75
2023/07/27 00:09:15;;;;;;;5.18;2.20;;;13.80;99.90;;;;;;4956145;28;20027;-74
2023/07/27 00:11:41;;;;;;;5.55;2.03;;;13.80;99.90;;;;;;4954388;29;20024;-74
2023/07/27 00:14:07;;;;;;;3.40;2.00;;;13.80;99.90;;;;;;4955654;28;20074;-75
2023/07/27 00:16:35;;;;;;;15.00;1.95;;;13.80;99.90;;;;;;4954513;28;20486;-76
2023/07/27 00:19:19;;;;;;;3.65;2.40;;;13.80;99.90;;;;;;4955564;28;20035;-74
2023/07/27 00:21:45;;;;;;;3.22;1.90;;;13.80;99.90;;;;;;4964069;28;20053;-74
2023/07/27 00:24:11;;;;;;;3.72;1.98;;;13.80;99.90;;;;;;4973983;28;20490;-75
2023/07/27 00:26:36;;;;;;;2.38;1.35;;;13.70;99.90;;;;;;4974488;28;20089;-75
2023/07/27 00:29:02;;;;;;;4.07;2.20;;;13.70;99.90;;;;;;4973187;28;20031;-75
2023/07/27 00:31:27;;;;;;;4.47;1.98;;;13.70;99.90;;;;;;4974609;28;20019;-74
2023/07/27 00:33:53;;;;;;;2.75;1.75;;;13.70;99.90;;;;;;4973283;28;20571;-75
2023/07/27 00:36:22;;;;;;;3.20;1.73;;;13.70;99.90;;;;;;4974191;28;20335;-75
2023/07/27 00:38:47;;;;;;;4.93;2.08;;;13.70;99.90;;;;;;4973636;28;20038;-75
2023/07/27 00:41:13;;;;;;;6.25;2.00;;;13.60;99.90;;;;;;4974317;28;20026;-75
2023/07/27 00:43:38;;;;;;;4.97;1.95;;;13.60;99.90;;;;;;4972899;28;20482;-75
2023/07/27 00:46:16;;;;;;;2.90;2.03;;;13.60;99.90;;;;;;4974146;28;20031;-73
2023/07/27 00:48:42;;;;;;;2.67;1.80;;;13.60;99.90;;;;;;4974196;28;20023;-75
2023/07/27 00:51:09;;;;;;;3.35;1.67;;;13.60;99.90;;;;;;4974205;28;20604;-74
2023/07/27 00:53:35;;;;;;;4.25;2.17;;;13.60;99.90;;;;;;4974232;28;20493;-75
2023/07/27 00:56:06;;;;;;;3.33;1.65;;;13.60;99.90;;;;;;4974039;28;20045;-74
2023/07/27 00:58:32;;;;;;;3.50;1.80;;;13.60;99.90;;;;;;4974036;28;20038;-75
2023/07/27 01:01:03;;;;;;;3.50;2.28;;;13.60;99.90;;;;;;4974152;28;20482;-75
2023/07/27 01:03:28;;;;;;;3.35;2.05;;;13.50;99.90;;;;;;4974010;28;20030;-75
2023/07/27 01:05:54;;;;;;;3.33;1.92;;;13.50;99.90;;;;;;4972671;28;20023;-75
2023/07/27 01:08:23;;;;;;;3.05;1.83;;;13.50;99.90;;;;;;4973929;28;20363;-75
2023/07/27 01:11:02;;;;;;;3.40;1.85;;;13.50;99.90;;;;;;4973898;28;20035;-74
2023/07/27 01:13:48;;;;;;;3.83;2.13;;;13.50;99.90;;;;;;4972593;28;20477;-74
2023/07/27 01:16:22;;;;;;;4.82;1.88;;;13.50;99.90;;;;;;4973663;28;20041;-74
2023/07/27 01:18:53;;;;;;;;;;;13.50;99.90;;;;;;4974230;28;20054;-75
2023/07/27 01:21:36;;;;;;;8.20;1.80;;;13.50;99.90;;;;;;4954572;28;19906;-74
2023/07/27 01:24:26;;;;;;;3.80;1.90;;;13.50;99.90;;;;;;4963059;28;20143;-74
2023/07/27 01:27:10;;;;;;;2.88;1.83;;;13.40;99.90;;;;;;4972438;28;20022;-73
2023/07/27 01:30:07;;;;;;;5.80;1.92;;;13.40;99.90;;;;;;4973702;28;20023;-74
2023/07/27 01:32:38;;;;;;;4.05;2.38;;;13.40;99.90;;;;;;4973399;28;20035;-74
2023/07/27 01:35:10;;;;;;;3.80;1.80;;;13.40;99.90;;;;;;4973277;28;20041;-74
2023/07/27 01:37:44;;;;;;;3.33;1.92;;;13.40;99.90;;;;;;4973327;28;20031;-74
2023/07/27 01:40:13;;;;;;;4.03;1.85;;;13.30;99.90;;;;;;4972076;28;20528;-73
2023/07/27 01:42:40;;;;;;;3.72;2.15;;;13.30;99.90;;;;;;4973134;28;20086;-74
2023/07/27 01:45:23;;;;;;;3.72;1.80;;;13.30;99.90;;;;;;4973166;28;20035;-74
2023/07/27 01:47:54;;;;;;;4.95;2.50;;;13.30;99.90;;;;;;4973100;28;20030;-73
2023/07/27 01:50:21;;;;;;;5.15;2.00;;;13.30;99.90;;;;;;4971918;28;20034;-74
2023/07/27 01:52:47;;;;;;;5.00;1.90;;;13.30;99.90;;;;;;4971878;28;20529;-75
2023/07/27 01:55:15;;;;;;;5.18;2.22;;;13.30;99.90;;;;;;4971598;28;20027;-74
2023/07/27 01:57:44;;;;;;;4.35;1.58;;;13.20;99.90;;;;;;4972938;28;20486;-73
2023/07/27 02:00:14;;;;;;;4.35;1.90;;;13.20;99.90;;;;;;4971695;28;20031;-74
2023/07/27 02:02:44;;;;;;;7.10;1.98;;;13.20;99.90;;;;;;4972932;28;20034;-74
2023/07/27 02:05:15;;;;;;;2.17;1.45;;;13.20;99.90;;;;;;4973125;28;20066;-74
2023/07/27 02:07:44;;;;;;;3.38;1.63;;;13.20;99.90;;;;;;4972964;28;20019;-75
2023/07/27 02:10:12;;;;;;;3.42;1.63;;;13.20;99.90;;;;;;4972763;28;20027;-75
2023/07/27 02:12:43;;;;;;;3.33;1.58;;;13.20;99.90;;;;;;4971527;28;20054;-74
2023/07/27 02:15:15;;;;;;;5.30;2.20;;;13.20;99.90;;;;;;4970173;28;20482;-76
2023/07/27 02:18:05;;;;;;;4.35;2.17;;;13.10;99.90;;;;;;5006993;23;20372;-73
2023/07/27 02:20:36;;;;;;;3.40;1.75;;;13.10;99.90;;;;;;5020752;28;20065;-74
2023/07/27 02:23:04;;;;;;;3.70;2.20;;;13.10;99.90;;;;;;5017461;28;20034;-74
2023/07/27 02:25:30;;;;;;;3.92;2.30;;;13.10;99.90;;;;;;5018387;28;20483;-75
2023/07/27 02:27:55;;;;;;;5.07;2.58;;;13.10;99.90;;;;;;5009972;28;20170;-73
2023/07/27 02:30:27;;;;;;;4.90;2.00;;;13.10;99.90;;;;;;4998066;28;21155;-73
2023/07/27 02:32:52;;;;;;;4.13;2.22;;;13.10;99.90;;;;;;4998339;28;20030;-74
2023/07/27 02:35:19;;;;;;;3.45;2.13;;;13.10;99.90;;;;;;4997141;28;20037;-74
2023/07/27 02:37:45;;;;;;;3.53;1.70;;;13.10;99.90;;;;;;5003499;28;20374;-74
2023/07/27 02:40:10;;;;;;;3.65;2.10;;;13.10;99.90;;;;;;5005690;28;20041;-74
2023/07/27 02:42:36;;;;;;;4.90;2.10;;;13.00;99.90;;;;;;5006008;28;20109;-74
2023/07/27 02:45:01;;;;;;;4.75;2.47;;;13.10;99.90;;;;;;5003595;28;20030;-74
2023/07/27 02:47:27;;;;;;;3.00;1.90;;;13.10;99.90;;;;;;5006504;28;20026;-74
2023/07/27 02:49:53;;;;;;;5.70;2.50;;;13.10;99.90;;;;;;5007436;28;20087;-74
2023/07/27 02:52:24;;;;;;;4.00;2.10;;;13.10;99.90;;;;;;5009363;28;20078;-74
2023/07/27 02:54:56;;;;;;;4.25;2.47;;;13.10;99.90;;;;;;5007989;28;20029;-74
2023/07/27 02:57:22;;;;;;;4.72;3.03;;;13.10;99.90;;;;;;5009647;28;20449;-74
2023/07/27 02:59:47;;;;;;;4.63;2.83;;;13.10;99.90;;;;;;4979592;28;20045;-74
2023/07/27 03:02:17;;;;;;;5.43;2.83;;;13.10;99.90;;;;;;5009346;28;20128;-74
2023/07/27 03:04:42;;;;;;;6.50;2.67;;;13.10;99.90;;;;;;5019124;28;20029;-74
2023/07/27 03:07:08;;;;;;;4.38;2.63;;;13.10;99.90;;;;;;5001660;28;20412;-74
2023/07/27 03:09:34;;;;;;;4.68;2.78;;;13.10;99.90;;;;;;5011484;28;20060;-74
2023/07/27 03:11:59;;;;;;;6.88;3.30;;;13.10;99.90;;;;;;5006317;28;20036;-74
2023/07/27 03:14:28;;;;;;;4.55;2.95;;;13.10;99.90;;;;;;5009870;28;20049;-74
2023/07/27 03:16:54;;;;;;;4.55;2.85;;;13.10;99.90;;;;;;5006837;28;20100;-74
2023/07/27 03:19:19;;;;;;;4.82;2.30;;;13.10;99.90;;;;;;5026086;28;20505;-74
2023/07/27 03:21:45;;;;;;;5.82;2.67;;;13.10;99.90;;;;;;5007900;28;20037;-74
2023/07/27 03:24:11;;;;;;;6.80;3.10;;;13.10;99.90;;;;;;5009382;28;20026;-73
2023/07/27 03:26:40;;;;;;;6.43;3.00;;;13.10;99.90;;;;;;5009389;28;20407;-74
2023/07/27 03:29:11;;;;;;;5.45;3.10;;;13.10;99.90;;;;;;5006788;28;20022;-74
2023/07/27 03:31:39;;;;;;;9.07;3.70;;;13.10;99.90;;;;;;5011686;28;20038;-74
2023/07/27 03:34:08;;;;;;;9.63;3.50;;;13.10;99.90;;;;;;5003665;28;20103;-74
2023/07/27 03:36:33;;;;;;;6.82;3.65;;;13.20;99.90;;;;;;5010251;28;20381;-73
2023/07/27 03:38:59;;;;;;;4.05;2.65;;;13.20;99.90;;;;;;5008522;28;20038;-74
2023/07/27 03:41:27;;;;;;;4.85;3.13;;;13.20;99.90;;;;;;5007473;28;20022;-74
2023/07/27 03:43:56;;;;;;;3.92;2.72;;;13.20;99.90;;;;;;5005303;28;20026;-74
2023/07/27 03:46:28;;;;;;;6.43;3.30;;;13.20;99.90;;;;;;5012583;28;20097;-74
2023/07/27 03:48:54;;;;;;;4.63;2.75;;;13.20;99.90;;;;;;5004742;28;20396;-74
2023/07/27 03:51:19;;;;;;;4.97;3.10;;;13.10;99.90;;;;;;5008156;28;20030;-74
2023/07/27 03:53:48;;;;;;;5.35;2.85;;;13.10;99.90;;;;;;5005035;28;20030;-74
2023/07/27 03:56:26;;;;;;;5.20;3.03;;;13.10;99.90;;;;;;5006445;28;20030;-74
2023/07/27 03:58:54;;;;;;;5.25;2.50;;;13.20;99.90;;;;;;5006417;28;20034;-73
2023/07/27 04:01:20;;;;;;;5.72;2.75;;;13.10;99.90;;;;;;5004790;28;20077;-74
2023/07/27 04:03:49;;;;;;;4.95;3.00;;;13.10;99.90;;;;;;5010213;28;20034;-74
2023/07/27 04:06:20;;;;;;;4.97;2.70;;;13.20;99.90;;;;;;5009261;28;20192;-74
2023/07/27 04:08:49;;;;;;;6.05;2.72;;;13.20;99.90;;;;;;5004930;28;20501;-74
2023/07/27 04:11:14;;;;;;;4.63;2.65;;;13.10;99.90;;;;;;5008165;28;20488;-74
2023/07/27 04:13:43;;;;;;;5.25;2.58;;;13.10;99.90;;;;;;5008220;28;20088;-73
2023/07/27 04:16:09;;;;;;;7.05;2.90;;;13.10;99.90;;;;;;5008033;28;20030;-74
2023/07/27 04:18:38;;;;;;;6.35;2.67;;;13.10;99.90;;;;;;5005587;28;20044;-73
2023/07/27 04:21:03;;;;;;;5.10;2.65;;;13.10;99.90;;;;;;5009556;28;20030;-74
2023/07/27 04:23:32;;;;;;;5.13;2.72;;;13.10;99.90;;;;;;5007936;28;20881;-74
2023/07/27 04:26:03;;;;;;;4.13;2.42;;;13.10;99.90;;;;;;5004480;28;20029;-74
2023/07/27 04:28:32;;;;;;;6.40;2.38;;;13.10;99.90;;;;;;5003926;28;20350;-74
2023/07/27 04:31:01;;;;;;;5.25;2.80;;;13.20;99.90;;;;;;5008590;28;20054;-74
2023/07/27 04:33:26;;;;;;;7.13;2.88;;;13.20;99.90;;;;;;5005386;28;21012;-74
2023/07/27 04:35:52;;;;;;;5.85;3.13;;;13.20;99.90;;;;;;5002309;28;20029;-74
2023/07/27 04:38:17;;;;;;;6.20;2.80;;;13.20;99.90;;;;;;5008530;28;20704;-74
2023/07/27 04:40:46;;;;;;;6.07;3.10;;;13.30;99.90;;;;;;5009585;28;20105;-74
2023/07/27 04:43:18;;;;;;;5.03;3.08;;;13.30;99.90;;;;;;5006574;28;20397;-74
2023/07/27 04:45:46;;;;;;;6.75;3.13;;;13.30;99.90;;;;;;5006256;28;20033;-74
2023/07/27 04:48:21;;;;;;;4.68;2.90;;;13.30;99.90;;;;;;5006399;28;20022;-74
2023/07/27 04:50:49;;;;;;;6.22;2.92;;;13.40;99.90;;;;;;5002986;28;20050;-74
2023/07/27 04:53:15;;;;;;;4.18;2.42;;;13.40;99.90;;;;;;5007133;28;20034;-74
2023/07/27 04:55:41;;;;;;;5.40;2.08;;;13.50;99.90;;;;;;5005919;28;20041;-74
2023/07/27 04:58:12;;;;;;;4.75;2.33;;;13.50;99.90;;;;;;5009690;28;20030;-74
2023/07/27 05:00:38;;;;;;;3.15;2.00;;;13.60;99.90;;;;;;5001961;28;20041;-73
2023/07/27 05:03:03;;;;;;;4.80;2.17;;;13.70;99.90;;;;;;5022808;28;20480;-73
2023/07/27 05:05:29;;;;;;;5.15;2.30;;;13.80;99.90;;;;;;5005958;28;20112;-73
2023/07/27 05:07:55;;;;;;;3.78;2.30;;;13.80;99.90;;;;;;5008847;28;20114;-74
2023/07/27 05:10:22;;;;;;;3.30;2.08;;;13.90;99.90;;;;;;5001529;28;20033;-74
2023/07/27 05:12:48;;;;;;;4.32;1.80;;;13.90;99.90;;;;;;5005813;28;20080;-73
2023/07/27 05:15:20;;;;;;;3.00;1.80;;;14.10;99.90;;;;;;5001191;28;20034;-73
2023/07/27 05:17:45;;;;;;;5.03;1.83;;;14.10;99.90;;;;;;5006521;28;20033;-73
2023/07/27 05:20:14;;;;;;;7.07;2.80;;;14.20;99.90;;;;;;5007924;28;20030;-74
2023/07/27 05:22:42;;;;;;;5.07;2.88;;;14.20;99.90;;;;;;5007367;28;20575;-74
2023/07/27 05:25:10;;;;;;;4.45;2.95;;;14.20;99.90;;;;;;5004267;28;20140;-74
2023/07/27 05:27:38;;;;;;;6.00;3.03;;;14.10;99.90;;;;;;5005490;28;20026;-74
2023/07/27 05:30:05;;;;;;;5.70;3.08;;;14.20;99.90;;;;;;5002991;28;20072;-69
2023/07/27 05:32:30;;;;;;;4.63;2.90;;;14.10;99.90;;;;;;5009451;28;20341;-69
2023/07/27 05:34:59;;;;;;;4.20;3.13;;;14.10;99.90;;;;;;5003332;28;20033;-69
2023/07/27 05:37:46;;;;;;;9.45;2.70;;;14.20;99.90;;;;;;5003417;28;20022;-69
2023/07/27 05:40:18;;;;;;;6.05;2.83;;;14.20;99.90;;;;;;5012908;28;20029;-69
2023/07/27 05:42:43;;;;;;;5.18;2.85;;;14.20;99.90;;;;;;5007686;28;20053;-69
2023/07/27 05:45:24;;;;;;;6.97;2.38;;;14.30;99.90;;;;;;5003017;28;20081;-69
2023/07/27 05:47:49;;;;;;;4.47;2.05;;;14.40;99.90;;;;;;5002011;28;20026;-74
2023/07/27 05:50:16;;;;;;;2.65;1.73;;;14.40;99.90;;;;;;4998741;28;20141;-75
2023/07/27 05:52:41;;;;;;;4.38;2.25;;;14.40;99.90;;;;;;5006049;28;20022;-75
2023/07/27 05:55:15;;;;;;;5.68;2.47;;;14.50;99.90;;;;;;5004880;28;20026;-73
2023/07/27 05:57:44;;;;;;;5.88;2.47;;;14.60;99.90;;;;;;5006726;28;20038;-74
2023/07/27 06:00:16;;;;;;;4.07;2.13;;;14.60;99.90;;;;;;4999911;28;20034;-74
2023/07/27 06:02:48;;;;;;;5.07;2.40;;;14.60;99.90;;;;;;4999241;28;20022;-73
2023/07/27 06:05:19;;;;;;;6.20;2.63;;;14.70;99.90;;;;;;5002246;28;20063;-74
2023/07/27 06:07:45;;;;;;;4.32;2.70;;;14.70;99.90;;;;;;5002269;28;20121;-75
2023/07/27 06:10:11;;;;;;;4.43;2.63;;;14.80;99.90;;;;;;5003223;28;20535;-76
2023/07/27 06:12:37;;;;;;;4.72;2.35;;;14.80;99.90;;;;;;5003703;28;20050;-75
2023/07/27 06:15:03;;;;;;;4.85;2.53;;;14.90;99.90;;;;;;5005523;28;20057;-76
2023/07/27 06:17:28;;;;;;;4.88;2.75;;;14.90;99.90;;;;;;5005829;28;20205;-75
2023/07/27 06:19:54;;;;;;;5.95;2.72;;;14.90;99.90;;;;;;5007226;28;20034;-75
2023/07/27 06:22:22;;;;;;;5.78;3.00;;;15.00;99.90;;;;;;4998023;28;20083;-75
2023/07/27 06:24:48;;;;;;;6.22;3.08;;;15.10;99.90;;;;;;5003374;28;20095;-74
2023/07/27 06:27:17;;;;;;;5.97;2.45;;;15.20;99.90;;;;;;5002167;28;20030;-74
2023/07/27 06:29:42;;;;;;;4.30;2.40;;;15.30;99.90;;;;;;5003577;28;20033;-74
2023/07/27 06:32:11;;;;;;;5.13;2.58;;;15.40;99.90;;;;;;5003079;28;20029;-74
2023/07/27 06:34:41;;;;;;;4.22;2.22;;;15.50;99.90;;;;;;5005157;28;20040;-73
2023/07/27 06:37:07;;;;;;;4.85;1.85;;;15.60;99.90;;;;;;5002333;28;20496;-73
2023/07/27 06:39:38;;;;;;;5.80;2.97;;;15.60;99.90;;;;;;5004354;28;20057;-73
2023/07/27 06:42:10;;;;;;;5.65;2.40;;;15.70;99.90;;;;;;5005921;28;20395;-73
2023/07/27 06:44:35;;;;;;;3.53;2.55;;;15.80;99.90;;;;;;5004121;28;20033;-73
2023/07/27 06:47:04;;;;;;;2.45;1.92;;;15.90;99.90;;;;;;5009828;28;20113;-73
2023/07/27 06:49:29;;;;;;;2.97;1.85;;;16.00;99.90;;;;;;5004251;28;20378;-73
2023/07/27 06:51:55;;;;;;;3.50;1.92;;;16.10;99.90;;;;;;5005551;28;20037;-73
2023/07/27 06:54:24;;;;;;;2.10;1.80;;;16.20;99.90;;;;;;5007063;28;20094;-73
2023/07/27 06:56:52;;;;;;;3.47;2.28;;;16.30;99.90;;;;;;5004703;28;20488;-73
2023/07/27 06:59:22;;;;;;;3.85;1.85;;;16.40;99.90;;;;;;5002354;28;20591;-73
2023/07/27 07:01:47;;;;;;;2.45;1.60;;;16.50;99.90;;;;;;5002482;28;20484;-74
2023/07/27 07:04:13;;;;;;;2.85;1.65;;;16.60;99.90;;;;;;5000571;28;20030;-74
2023/07/27 07:06:40;;;;;;;3.50;1.67;;;16.60;99.90;;;;;;5004595;28;20045;-74
2023/07/27 07:09:05;;;;;;;3.55;1.40;;;16.70;99.90;;;;;;5006679;28;20018;-74
2023/07/27 07:11:31;;;;;;;3.65;1.70;;;16.70;99.90;;;;;;5005164;28;20428;-74
2023/07/27 07:14:03;;;;;;;4.20;1.80;;;16.80;99.90;;;;;;5007303;28;20049;-74
2023/07/27 07:16:29;;;;;;;7.20;1.60;;;16.90;99.90;;;;;;5004455;28;20033;-74
2023/07/27 07:18:55;;;;;;;3.80;1.77;;;16.90;99.90;;;;;;5005685;28;20042;-73
2023/07/27 07:21:20;;;;;;;6.53;2.00;;;16.90;99.90;;;;;;5002159;28;20034;-74
2023/07/27 07:23:49;;;;;;;2.58;1.77;;;17.00;99.90;;;;;;5006878;28;20435;-74
2023/07/27 07:26:15;;;;;;;3.92;1.95;;;17.10;99.90;;;;;;5006633;28;20032;-74
2023/07/27 07:28:40;;;;;;;4.10;1.65;;;17.10;99.90;;;;;;5004839;28;20026;-74
2023/07/27 07:31:06;;;;;;;4.68;2.13;;;17.10;99.90;;;;;;5002468;28;20387;-75
2023/07/27 07:33:31;;;;;;;4.38;1.63;;;17.10;99.90;;;;;;5009994;28;20108;-75
2023/07/27 07:35:57;;;;;;;2.78;1.25;;;17.20;99.90;;;;;;5005416;28;20038;-74
2023/07/27 07:38:23;;;;;;;4.85;1.42;;;17.30;99.90;;;;;;5010262;28;20075;-74
2023/07/27 07:40:48;;;;;;;3.47;1.27;;;17.30;99.90;;;;;;5005754;28;20030;-74
2023/07/27 07:43:14;;;;;;;5.05;1.98;;;17.40;99.90;;;;;;5004967;28;20026;-74
2023/07/27 07:45:45;;;;;;;5.75;1.83;;;17.50;99.90;;;;;;5007551;28;20022;-75
2023/07/27 07:48:14;;;;;;;2.83;1.67;;;17.50;99.90;;;;;;5005787;28;20166;-74
2023/07/27 07:50:40;;;;;;;4.00;1.90;;;17.60;99.90;;;;;;5004829;28;20042;-75
2023/07/27 07:53:06;;;;;;;2.63;1.55;;;17.70;99.90;;;;;;5008939;28;20037;-75
2023/07/27 07:55:41;;;;;;;3.10;1.80;;;17.70;99.90;;;;;;5006526;28;20041;-75
2023/07/27 07:58:09;;;;;;;3.53;1.83;;;17.70;99.90;;;;;;5008675;28;20056;-75
2023/07/27 08:00:42;;;;;;;4.38;2.00;;;17.80;99.90;;;;;;5006563;28;20049;-75
2023/07/27 08:03:09;;;;;;;3.28;1.52;;;17.80;99.90;;;;;;5007862;28;20129;-75
2023/07/27 08:05:35;;;;;;;2.97;1.95;;;17.80;99.90;;;;;;5005688;28;20101;-75
2023/07/27 08:08:03;;;;;;;3.67;1.90;;;17.90;99.90;;;;;;5008495;28;20048;-75
2023/07/27 08:10:29;;;;;;;4.07;1.50;;;17.90;99.90;;;;;;5007367;28;20099;-75
2023/07/27 08:12:55;;;;;;;5.60;2.10;;;17.90;99.90;;;;;;5007455;28;20439;-74
2023/07/27 08:15:23;;;;;;;3.90;1.90;;;17.90;99.90;;;;;;5004467;28;20034;-74
2023/07/27 08:17:49;;;;;;;5.90;2.20;;;17.90;99.90;;;;;;5026054;23;20066;-73
2023/07/27 08:20:33;;;;;;;7.45;2.00;;;18.00;99.90;;;;;;5028069;28;20025;-74
2023/07/27 08:22:58;;;;;;;4.38;1.60;;;18.10;99.90;;;;;;4999667;28;20045;-74
2023/07/27 08:25:37;;;;;;;2.85;1.30;;;18.20;99.90;;;;;;5016654;28;20037;-74
2023/07/27 08:28:03;;;;;;;4.30;1.42;;;18.20;99.90;;;;;;5018916;28;20379;-73
2023/07/27 08:30:28;;;;;;;5.57;1.83;;;18.30;99.90;;;;;;5015531;28;20026;-73
2023/07/27 08:32:54;;;;;;;4.68;1.20;;;18.30;99.90;;;;;;5015935;28;20030;-74
2023/07/27 08:35:26;;;;;;;2.88;1.33;;;18.40;99.90;;;;;;5015948;28;20060;-74
2023/07/27 08:37:52;;;;;;;4.15;1.48;;;18.40;99.90;;;;;;5015816;28;20057;-73
2023/07/27 08:40:24;;;;;;;5.97;1.83;;;18.40;99.90;;;;;;5014001;28;20060;-74
2023/07/27 08:42:50;;;;;;;2.25;1.45;;;18.50;99.90;;;;;;5016235;28;20053;-74
2023/07/27 08:45:20;;;;;;;2.75;1.42;;;18.50;99.90;;;;;;5016010;28;20021;-74
2023/07/27 08:47:52;;;;;;;2.03;1.27;;;18.60;99.90;;;;;;5012705;28;20075;-74
2023/07/27 08:50:19;;;;;;;3.20;1.70;;;18.60;99.90;;;;;;5014486;28;20017;-74
2023/07/27 08:52:51;;;;;;;3.03;1.50;;;18.70;99.90;;;;;;5013350;28;20105;-74
2023/07/27 08:55:21;;;;;;;4.32;1.30;;;18.80;99.90;;;;;;5016063;28;20052;-74
2023/07/27 08:57:46;;;;;;;2.40;1.52;;;18.90;99.90;;;;;;5015903;28;20117;-74
2023/07/27 09:00:12;;;;;;;2.65;1.30;;;18.90;99.90;;;;;;5018501;28;20104;-72
2023/07/27 09:02:47;;;;;;;3.88;1.38;;;19.00;99.90;;;;;;5013153;28;20061;-74
2023/07/27 09:05:13;;;;;;;1.67;1.23;;;19.00;99.90;;;;;;5015344;28;20379;-74
2023/07/27 09:07:48;;;;;;;3.70;1.50;;;19.00;99.90;;;;;;5016932;28;20023;-74
2023/07/27 09:10:15;;;;;;;1.98;1.35;;;19.10;99.90;;;;;;5012375;28;20115;-73
2023/07/27 09:12:50;;;;;;;4.22;1.58;;;19.00;99.90;;;;;;5016942;28;20029;-73
2023/07/27 09:15:16;;;;;;;1.73;1.17;;;19.00;99.90;;;;;;5017092;28;20549;-72
2023/07/27 09:17:48;;;;;;;3.35;1.58;;;19.10;99.90;;;;;;5011518;28;20105;-73
2023/07/27 09:20:16;;;;;;;3.80;1.63;;;19.10;99.90;;;;;;5015839;28;20044;-74
2023/07/27 09:22:45;;;;;;;5.43;2.00;;;19.20;99.90;;;;;;5017929;28;20044;-74
2023/07/27 09:25:11;;;;;;;4.60;2.00;;;19.20;99.90;;;;;;5011846;28;20034;-73
2023/07/27 09:27:44;;;;;;;7.75;2.10;;;19.30;99.90;;;;;;5014477;28;20433;-73
2023/07/27 09:30:16;;;;;;;8.68;1.70;;;19.40;99.90;;;;;;5011026;28;20022;-73
2023/07/27 09:32:47;;;;;;;3.90;1.30;;;19.50;99.90;;;;;;5011694;28;20550;-74
2023/07/27 09:35:15;;;;;;;4.78;2.53;;;19.60;99.90;;;;;;5009757;28;20548;-73
2023/07/27 09:37:43;;;;;;;3.75;1.70;;;19.60;99.90;;;;;;5013156;28;20029;-74
2023/07/27 09:40:12;;;;;;;3.63;1.83;;;19.60;99.90;;;;;;5013920;28;20073;-75
2023/07/27 09:42:42;;;;;;;4.72;1.70;;;19.70;99.90;;;;;;5013951;28;20377;-73
2023/07/27 09:45:12;;;;;;;3.67;1.77;;;19.70;99.90;;;;;;5012273;28;20033;-74
2023/07/27 09:47:41;;;;;;;3.95;1.90;;;19.70;99.90;;;;;;5014918;28;20033;-74
2023/07/27 09:50:08;;;;;;;4.63;2.03;;;19.70;99.90;;;;;;5009684;28;20034;-73
2023/07/27 09:52:36;;;;;;;3.03;2.00;;;19.80;99.90;;;;;;5012525;28;20715;-74
2023/07/27 09:55:02;;;;;;;3.80;1.30;;;19.70;99.90;;;;;;5016147;28;20018;-74
2023/07/27 09:57:31;;;;;;;3.17;1.92;;;19.70;99.90;;;;;;5009880;28;20120;-72
2023/07/27 10:00:13;;;;;;;4.03;1.90;;;19.70;99.90;;;;;;5011354;28;20081;-74
2023/07/27 10:02:45;;;;;;;3.33;1.70;;;19.70;99.90;;;;;;5011086;28;20103;-74
2023/07/27 10:05:17;;;;;;;9.27;2.55;;;19.70;99.90;;;;;;5012635;28;20041;-74
2023/07/27 10:07:43;;;;;;;8.80;2.60;;;19.70;99.90;;;;;;5017880;28;20454;-75
2023/07/27 10:10:40;;;;;;;3.78;1.98;;;19.70;99.90;;;;;;5011134;28;20014;-74
2023/07/27 10:13:34;;;;;;;5.15;2.25;;;19.70;99.90;;;;;;5013067;28;20033;-75
2023/07/27 10:16:00;;;;;;;;;;;19.70;99.90;;;;;;5012679;28;20033;-73
2023/07/27 10:18:27;;;;;;;5.65;2.28;;;19.70;99.90;;;;;;5017907;28;20313;-74
2023/07/27 10:21:19;;;;;;;4.93;2.08;;;19.70;99.90;;;;;;5014297;28;20033;-76
2023/07/27 10:23:58;;;;;;;4.00;2.20;;;19.70;99.90;;;;;;5013112;28;20029;-76
2023/07/27 10:26:51;;;;;;;4.47;2.30;;;19.60;99.90;;;;;;5019867;28;20108;-75
2023/07/27 10:29:22;;;;;;;5.00;2.30;;;19.60;99.90;;;;;;5011365;28;20034;-74
2023/07/27 10:32:10;;;;;;;3.95;2.38;;;19.60;99.90;;;;;;5011455;28;20500;-75
2023/07/27 10:34:37;;;;;;;3.63;2.00;;;19.50;99.90;;;;;;5014341;28;20040;-77
2023/07/27 10:37:04;;;;;;;4.72;2.03;;;19.50;99.90;;;;;;5015392;28;20026;-75
2023/07/27 10:39:50;;;;;;;4.82;1.88;;;19.50;99.90;;;;;;5016136;28;20391;-75
2023/07/27 10:42:21;;;;;;;3.97;1.50;;;19.50;99.90;;;;;;5014627;28;20036;-75
2023/07/27 10:45:05;;;;;;;2.72;1.83;;;19.50;99.90;;;;;;5015441;28;20029;-75
2023/07/27 10:47:48;;;;;;;3.72;2.15;;;19.50;99.90;;;;;;5013037;28;20034;-75
2023/07/27 10:50:16;;;;;;;7.13;2.55;;;19.50;99.90;;;;;;5017496;28;20022;-75
2023/07/27 10:52:45;;;;;;;4.43;2.53;;;19.50;99.90;;;;;;5016375;28;20026;-74
2023/07/27 10:55:14;;;;;;;4.43;2.10;;;19.60;99.90;;;;;;5016176;28;20068;-75
2023/07/27 10:57:42;;;;;;;3.38;1.75;;;19.70;99.90;;;;;;5013596;28;20612;-75
2023/07/27 11:00:11;;;;;;;4.03;2.03;;;19.70;99.90;;;;;;5011889;28;20025;-75
2023/07/27 11:02:41;;;;;;;4.75;1.92;;;19.80;99.90;;;;;;5019829;28;20033;-76
2023/07/27 11:05:08;;;;;;;3.55;1.85;;;19.90;99.90;;;;;;5017921;28;20021;-75
2023/07/27 11:07:49;;;;;;;4.68;2.00;;;20.00;99.90;;;;;;5024578;28;20056;-76
2023/07/27 11:10:16;;;;;;;2.95;1.90;;;20.20;99.90;;;;;;5018320;28;20481;-74
2023/07/27 11:12:46;;;;;;;3.40;1.50;;;20.30;99.90;;;;;;5020299;28;20065;-75
2023/07/27 11:15:30;;;;;;;4.22;1.60;;;20.50;99.90;;;;;;5017576;28;20061;-75
2023/07/27 11:17:59;;;;;;;;;;;20.70;99.90;;;;;;5020074;28;21030;-75
2023/07/27 11:20:28;;;;;;;5.20;1.75;;;20.80;99.90;;;;;;5016205;28;19913;-75
2023/07/27 11:22:56;;;;;;;3.00;1.58;;;21.00;99.90;;;;;;5021112;28;20129;-76
2023/07/27 11:25:23;;;;;;;2.88;1.70;;;21.20;99.90;;;;;;5019271;28;20544;-75
2023/07/27 11:27:49;;;;;;;5.18;1.90;;;21.30;99.90;;;;;;5016702;28;20037;-75
2023/07/27 11:30:17;;;;;;;2.47;1.52;;;21.40;99.90;;;;;;5016715;28;20959;-75
2023/07/27 11:32:55;;;;;;;2.33;1.40;;;21.60;99.90;;;;;;5016165;28;20112;-74
2023/07/27 11:35:21;;;;;;;2.88;1.15;;;21.70;99.90;;;;;;5019404;28;20026;-75
2023/07/27 11:37:47;;;;;;;3.00;1.50;;;21.80;99.90;;;;;;5019966;28;20025;-75
2023/07/27 11:40:20;;;;;;;3.30;1.45;;;21.90;99.90;;;;;;5018085;28;20158;-74
2023/07/27 11:42:46;;;;;;;2.27;1.30;;;22.10;99.60;;;;;;5020243;28;20503;-73
2023/07/27 11:45:12;;;;;;;1.98;0.85;;;22.10;99.00;;;;;;5020781;28;20350;-74
2023/07/27 11:47:39;;;;;;;3.30;1.20;;;22.20;98.80;;;;;;5020223;28;20469;-74
2023/07/27 11:50:06;;;;;;;3.60;1.55;;;22.20;98.50;;;;;;5022973;28;20072;-75
2023/07/27 11:52:35;;;;;;;1.58;1.05;;;22.20;98.50;;;;;;5019337;28;20388;-75
2023/07/27 11:55:02;;;;;;;3.88;1.38;;;22.20;98.40;;;;;;5024245;28;20077;-74
2023/07/27 11:57:28;;;;;;;3.47;1.45;;;22.20;98.60;;;;;;5018685;28;20384;-74
2023/07/27 12:00:02;;;;;;;1.52;1.10;;;22.20;98.50;;;;;;5024414;28;20037;-74
2023/07/27 12:02:32;;;;;;;1.50;0.90;;;22.20;98.60;;;;;;5016006;28;20484;-74
2023/07/27 12:05:04;;;;;;;2.58;1.70;;;22.20;98.70;;;;;;5023099;28;20061;-74
2023/07/27 12:07:35;;;;;;;3.92;1.23;;;22.20;98.90;;;;;;5019589;28;20037;-75
2023/07/27 12:10:01;;;;;;;4.63;1.50;;;22.20;98.80;;;;;;5018420;28;20021;-74
2023/07/27 12:12:30;;;;;;;2.53;1.20;;;22.30;98.90;;;;;;5021578;28;20033;-75
2023/07/27 12:14:58;;;;;;;2.78;1.48;;;22.30;99.40;;;;;;5020729;28;20036;-76
2023/07/27 12:17:29;;;;;;;2.75;1.25;;;22.30;99.30;;;;;;5014705;28;20026;-76
2023/07/27 12:19:55;;;;;;;2.38;1.33;;;22.30;99.90;;;;;;5013708;28;20076;-76
2023/07/27 12:22:21;;;;;;;1.52;1.10;;;22.30;99.90;;;;;;5016114;28;20038;-76
2023/07/27 12:24:49;;;;;;;1.60;1.08;;;22.20;99.90;;;;;;5017216;28;20040;-75
2023/07/27 12:27:15;;;;;;;2.47;1.30;;;22.20;99.90;;;;;;5016970;28;20025;-74
2023/07/27 12:29:41;;;;;;;2.58;1.20;;;22.10;99.90;;;;;;5021921;28;20041;-75
2023/07/27 12:32:07;;;;;;;4.35;1.60;;;22.00;99.90;;;;;;5016851;28;20045;-75
2023/07/27 12:34:32;;;;;;;3.97;1.40;;;21.80;99.90;;;;;;5017290;28;20038;-75
2023/07/27 12:36:59;;;;;;;3.28;1.70;;;21.70;99.90;;;;;;5023111;28;20033;-75
2023/07/27 12:39:24;;;;;;;7.07;1.63;;;21.60;99.90;;;;;;5022043;28;20025;-75
2023/07/27 12:41:50;;;;;;;4.13;2.10;;;21.40;99.90;;;;;;5018036;28;20513;-74
2023/07/27 12:44:16;;;;;;;4.88;1.80;;;21.40;99.90;;;;;;5015386;28;20034;-73
2023/07/27 12:46:41;;;;;;;4.25;1.83;;;21.30;99.90;;;;;;5013189;28;20029;-74
2023/07/27 12:49:07;;;;;;;3.38;1.65;;;21.20;99.90;;;;;;5015936;28;20045;-74
2023/07/27 12:51:33;;;;;;;2.13;1.45;;;21.10;99.90;;;;;;5017064;28;20022;-74
2023/07/27 12:53:59;;;;;;;3.35;1.65;;;21.10;99.90;;;;;;5015224;28;20421;-74
2023/07/27 12:56:25;;;;;;;2.25;1.42;;;21.10;99.90;;;;;;5014311;28;20026;-76
2023/07/27 12:58:51;;;;;;;3.20;1.65;;;21.10;99.90;;;;;;5017781;28;20380;-76